sensor_id;sensor_type;location;lat;lon;timestamp;P1;durP1;ratioP1;P2;durP2;ratioP2
73239;SDS011;61452;40.054;4.110;2023-05-10T00:02:32;2.15;;;0.50;;
73239;SDS011;61452;40.054;4.110;2023-05-10T00:07:34;2.67;;;0.50;;
73239;SDS011;61452;40.054;4.110;2023-05-10T00:12:36;1.90;;;0.60;;
73239;SDS011;61452;40.054;4.110;2023-05-10T00:17:39;3.63;;;0.77;;
73239;SDS011;61452;40.054;4.110;2023-05-10T00:22:41;1.10;;;0.45;;
73239;SDS011;61452;40.054;4.110;2023-05-10T00:27:43;2.38;;;0.60;;
73239;SDS011;61452;40.054;4.110;2023-05-10T00:32:45;3.67;;;0.93;;
73239;SDS011;61452;40.054;4.110;2023-05-10T00:37:49;2.10;;;0.55;;
73239;SDS011;61452;40.054;4.110;2023-05-10T00:42:51;2.08;;;0.40;;
73239;SDS011;61452;40.054;4.110;2023-05-10T00:47:55;2.33;;;0.63;;
73239;SDS011;61452;40.054;4.110;2023-05-10T00:52:57;1.77;;;0.70;;
73239;SDS011;61452;40.054;4.110;2023-05-10T00:58:01;3.17;;;0.47;;
73239;SDS011;61452;40.054;4.110;2023-05-10T01:03:03;2.17;;;0.68;;
73239;SDS011;61452;40.054;4.110;2023-05-10T01:08:05;1.73;;;0.40;;
73239;SDS011;61452;40.054;4.110;2023-05-10T01:13:10;0.80;;;0.30;;
73239;SDS011;61452;40.054;4.110;2023-05-10T01:23:30;2.45;;;0.40;;
73239;SDS011;61452;40.054;4.110;2023-05-10T01:49:44;0.93;;;0.45;;
73239;SDS011;61452;40.054;4.110;2023-05-10T01:54:55;1.83;;;0.40;;
73239;SDS011;61452;40.054;4.110;2023-05-10T02:00:03;1.52;;;0.40;;
73239;SDS011;61452;40.054;4.110;2023-05-10T02:05:15;0.98;;;0.40;;
73239;SDS011;61452;40.054;4.110;2023-05-10T02:10:19;1.73;;;0.50;;
73239;SDS011;61452;40.054;4.110;2023-05-10T02:15:22;2.30;;;0.60;;
73239;SDS011;61452;40.054;4.110;2023-05-10T02:20:26;2.03;;;0.50;;
73239;SDS011;61452;40.054;4.110;2023-05-10T02:25:29;2.55;;;0.50;;
73239;SDS011;61452;40.054;4.110;2023-05-10T02:30:33;1.45;;;0.40;;
73239;SDS011;61452;40.054;4.110;2023-05-10T02:40:40;2.17;;;0.50;;
73239;SDS011;61452;40.054;4.110;2023-05-10T02:45:44;3.50;;;0.50;;
73239;SDS011;61452;40.054;4.110;2023-05-10T02:50:50;2.90;;;0.52;;
73239;SDS011;61452;40.054;4.110;2023-05-10T02:55:54;2.65;;;0.50;;
73239;SDS011;61452;40.054;4.110;2023-05-10T03:00:59;1.95;;;0.50;;
73239;SDS011;61452;40.054;4.110;2023-05-10T03:06:02;2.50;;;0.50;;
73239;SDS011;61452;40.054;4.110;2023-05-10T03:16:27;3.03;;;0.60;;
73239;SDS011;61452;40.054;4.110;2023-05-10T03:21:34;3.25;;;0.80;;
73239;SDS011;61452;40.054;4.110;2023-05-10T03:26:44;3.75;;;0.63;;
73239;SDS011;61452;40.054;4.110;2023-05-10T03:31:51;4.45;;;1.00;;
73239;SDS011;61452;40.054;4.110;2023-05-10T03:36:53;3.55;;;1.00;;
73239;SDS011;61452;40.054;4.110;2023-05-10T03:41:56;9.30;;;1.52;;
73239;SDS011;61452;40.054;4.110;2023-05-10T03:46:58;8.85;;;1.77;;
73239;SDS011;61452;40.054;4.110;2023-05-10T03:52:01;4.43;;;0.82;;
73239;SDS011;61452;40.054;4.110;2023-05-10T03:57:05;8.52;;;1.75;;
73239;SDS011;61452;40.054;4.110;2023-05-10T04:02:08;9.30;;;1.65;;
73239;SDS011;61452;40.054;4.110;2023-05-10T04:07:10;5.55;;;1.20;;
73239;SDS011;61452;40.054;4.110;2023-05-10T04:12:14;4.95;;;0.77;;
73239;SDS011;61452;40.054;4.110;2023-05-10T04:17:16;10.60;;;2.13;;
73239;SDS011;61452;40.054;4.110;2023-05-10T04:22:18;9.55;;;2.20;;
73239;SDS011;61452;40.054;4.110;2023-05-10T04:27:20;4.30;;;1.10;;
73239;SDS011;61452;40.054;4.110;2023-05-10T04:32:22;9.15;;;1.90;;
73239;SDS011;61452;40.054;4.110;2023-05-10T04:37:25;9.90;;;1.50;;
73239;SDS011;61452;40.054;4.110;2023-05-10T04:42:27;12.13;;;2.20;;
73239;SDS011;61452;40.054;4.110;2023-05-10T04:47:29;7.15;;;1.35;;
73239;SDS011;61452;40.054;4.110;2023-05-10T04:52:31;6.15;;;1.88;;
73239;SDS011;61452;40.054;4.110;2023-05-10T04:57:33;7.20;;;1.90;;
73239;SDS011;61452;40.054;4.110;2023-05-10T05:02:36;7.20;;;1.60;;
73239;SDS011;61452;40.054;4.110;2023-05-10T05:07:38;10.13;;;1.50;;
73239;SDS011;61452;40.054;4.110;2023-05-10T05:12:40;8.43;;;1.88;;
73239;SDS011;61452;40.054;4.110;2023-05-10T05:17:43;10.68;;;1.77;;
73239;SDS011;61452;40.054;4.110;2023-05-10T05:22:45;7.97;;;1.40;;
73239;SDS011;61452;40.054;4.110;2023-05-10T05:27:47;13.55;;;2.55;;
73239;SDS011;61452;40.054;4.110;2023-05-10T05:32:49;6.15;;;1.10;;
73239;SDS011;61452;40.054;4.110;2023-05-10T05:37:51;5.15;;;1.50;;
73239;SDS011;61452;40.054;4.110;2023-05-10T05:42:53;9.50;;;1.88;;
73239;SDS011;61452;40.054;4.110;2023-05-10T05:47:56;5.18;;;1.13;;
73239;SDS011;61452;40.054;4.110;2023-05-10T05:52:58;10.00;;;2.13;;
73239;SDS011;61452;40.054;4.110;2023-05-10T05:58:00;10.27;;;2.15;;
73239;SDS011;61452;40.054;4.110;2023-05-10T06:03:02;13.73;;;2.63;;
73239;SDS011;61452;40.054;4.110;2023-05-10T06:08:05;18.25;;;3.20;;
73239;SDS011;61452;40.054;4.110;2023-05-10T06:13:07;11.48;;;2.28;;
73239;SDS011;61452;40.054;4.110;2023-05-10T06:18:10;14.77;;;2.75;;
73239;SDS011;61452;40.054;4.110;2023-05-10T06:23:12;5.90;;;1.30;;
73239;SDS011;61452;40.054;4.110;2023-05-10T06:28:14;11.75;;;2.42;;
73239;SDS011;61452;40.054;4.110;2023-05-10T06:33:16;10.55;;;1.90;;
73239;SDS011;61452;40.054;4.110;2023-05-10T06:38:18;11.05;;;2.40;;
73239;SDS011;61452;40.054;4.110;2023-05-10T06:43:21;11.18;;;2.08;;
73239;SDS011;61452;40.054;4.110;2023-05-10T06:48:23;14.85;;;3.08;;
73239;SDS011;61452;40.054;4.110;2023-05-10T06:53:25;14.43;;;2.20;;
73239;SDS011;61452;40.054;4.110;2023-05-10T06:58:27;14.68;;;2.83;;
73239;SDS011;61452;40.054;4.110;2023-05-10T07:03:29;15.93;;;3.20;;
73239;SDS011;61452;40.054;4.110;2023-05-10T07:08:32;9.27;;;2.17;;
73239;SDS011;61452;40.054;4.110;2023-05-10T07:13:35;12.13;;;2.78;;
73239;SDS011;61452;40.054;4.110;2023-05-10T07:18:38;14.18;;;2.70;;
73239;SDS011;61452;40.054;4.110;2023-05-10T07:23:40;17.10;;;2.75;;
73239;SDS011;61452;40.054;4.110;2023-05-10T07:28:45;14.48;;;2.70;;
73239;SDS011;61452;40.054;4.110;2023-05-10T07:33:47;13.93;;;3.53;;
73239;SDS011;61452;40.054;4.110;2023-05-10T07:38:49;13.35;;;3.13;;
73239;SDS011;61452;40.054;4.110;2023-05-10T07:43:51;16.90;;;2.97;;
73239;SDS011;61452;40.054;4.110;2023-05-10T07:48:53;12.10;;;2.28;;
73239;SDS011;61452;40.054;4.110;2023-05-10T07:53:56;16.98;;;3.63;;
73239;SDS011;61452;40.054;4.110;2023-05-10T07:58:59;16.80;;;3.85;;
73239;SDS011;61452;40.054;4.110;2023-05-10T08:04:02;17.00;;;3.05;;
73239;SDS011;61452;40.054;4.110;2023-05-10T08:09:04;13.73;;;2.63;;
73239;SDS011;61452;40.054;4.110;2023-05-10T08:14:07;11.77;;;2.67;;
73239;SDS011;61452;40.054;4.110;2023-05-10T08:19:09;20.42;;;4.35;;
73239;SDS011;61452;40.054;4.110;2023-05-10T08:24:11;17.65;;;3.60;;
73239;SDS011;61452;40.054;4.110;2023-05-10T08:29:13;20.85;;;3.75;;
73239;SDS011;61452;40.054;4.110;2023-05-10T08:34:17;16.60;;;4.00;;
73239;SDS011;61452;40.054;4.110;2023-05-10T08:39:19;15.65;;;3.92;;
73239;SDS011;61452;40.054;4.110;2023-05-10T08:44:32;13.35;;;3.50;;
73239;SDS011;61452;40.054;4.110;2023-05-10T08:49:38;15.95;;;3.65;;
73239;SDS011;61452;40.054;4.110;2023-05-10T08:54:41;21.25;;;3.58;;
73239;SDS011;61452;40.054;4.110;2023-05-10T08:59:43;22.05;;;4.28;;
73239;SDS011;61452;40.054;4.110;2023-05-10T09:04:46;14.85;;;3.78;;
73239;SDS011;61452;40.054;4.110;2023-05-10T09:09:48;22.00;;;3.90;;
73239;SDS011;61452;40.054;4.110;2023-05-10T09:14:50;19.00;;;4.13;;
73239;SDS011;61452;40.054;4.110;2023-05-10T09:19:59;21.23;;;4.18;;
73239;SDS011;61452;40.054;4.110;2023-05-10T09:30:11;20.38;;;4.10;;
73239;SDS011;61452;40.054;4.110;2023-05-10T09:35:18;21.10;;;4.80;;
73239;SDS011;61452;40.054;4.110;2023-05-10T09:40:24;14.05;;;4.10;;
73239;SDS011;61452;40.054;4.110;2023-05-10T09:45:29;16.73;;;3.28;;
73239;SDS011;61452;40.054;4.110;2023-05-10T09:50:32;17.83;;;3.80;;
73239;SDS011;61452;40.054;4.110;2023-05-10T10:00:41;13.80;;;3.95;;
73239;SDS011;61452;40.054;4.110;2023-05-10T10:05:46;14.65;;;3.38;;
73239;SDS011;61452;40.054;4.110;2023-05-10T10:10:49;24.23;;;4.80;;
73239;SDS011;61452;40.054;4.110;2023-05-10T10:15:54;19.15;;;4.03;;
73239;SDS011;61452;40.054;4.110;2023-05-10T10:20:57;23.63;;;5.10;;
73239;SDS011;61452;40.054;4.110;2023-05-10T10:26:02;12.80;;;2.92;;
73239;SDS011;61452;40.054;4.110;2023-05-10T10:31:24;16.27;;;4.13;;
73239;SDS011;61452;40.054;4.110;2023-05-10T10:36:40;22.70;;;4.75;;
73239;SDS011;61452;40.054;4.110;2023-05-10T10:41:50;15.73;;;3.92;;
73239;SDS011;61452;40.054;4.110;2023-05-10T10:47:04;16.27;;;3.88;;
73239;SDS011;61452;40.054;4.110;2023-05-10T10:52:39;12.07;;;3.03;;
73239;SDS011;61452;40.054;4.110;2023-05-10T10:57:49;20.63;;;4.03;;
73239;SDS011;61452;40.054;4.110;2023-05-10T11:02:57;18.60;;;4.28;;
73239;SDS011;61452;40.054;4.110;2023-05-10T11:08:40;12.13;;;3.17;;
73239;SDS011;61452;40.054;4.110;2023-05-10T11:24:09;18.90;;;3.97;;
73239;SDS011;61452;40.054;4.110;2023-05-10T11:29:15;14.70;;;3.78;;
73239;SDS011;61452;40.054;4.110;2023-05-10T11:34:30;11.35;;;2.67;;
73239;SDS011;61452;40.054;4.110;2023-05-10T11:39:36;22.15;;;4.18;;
73239;SDS011;61452;40.054;4.110;2023-05-10T11:44:38;16.08;;;3.42;;
73239;SDS011;61452;40.054;4.110;2023-05-10T11:49:43;26.75;;;5.35;;
73239;SDS011;61452;40.054;4.110;2023-05-10T11:54:53;19.38;;;4.53;;
73239;SDS011;61452;40.054;4.110;2023-05-10T11:59:56;20.95;;;4.10;;
73239;SDS011;61452;40.054;4.110;2023-05-10T12:04:59;19.23;;;3.85;;
73239;SDS011;61452;40.054;4.110;2023-05-10T12:10:03;17.80;;;3.80;;
73239;SDS011;61452;40.054;4.110;2023-05-10T12:15:21;17.10;;;3.53;;
73239;SDS011;61452;40.054;4.110;2023-05-10T12:20:26;19.65;;;3.63;;
73239;SDS011;61452;40.054;4.110;2023-05-10T12:25:30;12.98;;;3.25;;
73239;SDS011;61452;40.054;4.110;2023-05-10T12:30:36;14.13;;;3.28;;
73239;SDS011;61452;40.054;4.110;2023-05-10T12:35:45;15.15;;;3.72;;
73239;SDS011;61452;40.054;4.110;2023-05-10T12:40:52;21.58;;;4.85;;
73239;SDS011;61452;40.054;4.110;2023-05-10T12:45:54;21.05;;;4.13;;
73239;SDS011;61452;40.054;4.110;2023-05-10T12:50:57;17.05;;;3.60;;
73239;SDS011;61452;40.054;4.110;2023-05-10T12:55:59;16.55;;;4.00;;
73239;SDS011;61452;40.054;4.110;2023-05-10T13:01:01;20.48;;;4.53;;
73239;SDS011;61452;40.054;4.110;2023-05-10T13:06:04;20.52;;;4.82;;
73239;SDS011;61452;40.054;4.110;2023-05-10T13:11:07;16.30;;;3.95;;
73239;SDS011;61452;40.054;4.110;2023-05-10T13:16:10;15.93;;;3.60;;
73239;SDS011;61452;40.054;4.110;2023-05-10T13:21:12;16.92;;;3.95;;
73239;SDS011;61452;40.054;4.110;2023-05-10T13:26:14;20.05;;;4.38;;
73239;SDS011;61452;40.054;4.110;2023-05-10T13:31:16;16.08;;;3.95;;
73239;SDS011;61452;40.054;4.110;2023-05-10T13:36:18;12.57;;;3.83;;
73239;SDS011;61452;40.054;4.110;2023-05-10T13:41:20;16.20;;;3.45;;
73239;SDS011;61452;40.054;4.110;2023-05-10T13:46:23;14.20;;;3.38;;
73239;SDS011;61452;40.054;4.110;2023-05-10T13:51:25;17.70;;;3.55;;
73239;SDS011;61452;40.054;4.110;2023-05-10T13:56:27;15.07;;;3.35;;
73239;SDS011;61452;40.054;4.110;2023-05-10T14:01:29;18.40;;;3.92;;
73239;SDS011;61452;40.054;4.110;2023-05-10T14:06:32;18.67;;;4.53;;
73239;SDS011;61452;40.054;4.110;2023-05-10T14:11:34;18.25;;;4.18;;
73239;SDS011;61452;40.054;4.110;2023-05-10T14:16:36;23.08;;;4.40;;
73239;SDS011;61452;40.054;4.110;2023-05-10T14:21:38;14.05;;;3.72;;
73239;SDS011;61452;40.054;4.110;2023-05-10T14:26:40;13.27;;;4.05;;
73239;SDS011;61452;40.054;4.110;2023-05-10T14:31:42;15.60;;;3.20;;
73239;SDS011;61452;40.054;4.110;2023-05-10T14:36:45;14.57;;;4.03;;
73239;SDS011;61452;40.054;4.110;2023-05-10T14:41:47;15.45;;;3.58;;
73239;SDS011;61452;40.054;4.110;2023-05-10T14:46:49;21.13;;;4.20;;
73239;SDS011;61452;40.054;4.110;2023-05-10T14:51:51;12.38;;;3.38;;
73239;SDS011;61452;40.054;4.110;2023-05-10T14:56:54;10.75;;;3.20;;
73239;SDS011;61452;40.054;4.110;2023-05-10T15:01:56;9.55;;;2.88;;
73239;SDS011;61452;40.054;4.110;2023-05-10T15:06:58;18.73;;;4.35;;
73239;SDS011;61452;40.054;4.110;2023-05-10T15:12:01;15.55;;;3.35;;
73239;SDS011;61452;40.054;4.110;2023-05-10T15:17:05;13.23;;;3.40;;
73239;SDS011;61452;40.054;4.110;2023-05-10T15:22:08;15.15;;;3.83;;
73239;SDS011;61452;40.054;4.110;2023-05-10T15:27:11;10.00;;;2.45;;
73239;SDS011;61452;40.054;4.110;2023-05-10T15:32:13;12.23;;;3.13;;
73239;SDS011;61452;40.054;4.110;2023-05-10T15:37:15;14.68;;;3.75;;
73239;SDS011;61452;40.054;4.110;2023-05-10T15:42:17;12.90;;;3.30;;
73239;SDS011;61452;40.054;4.110;2023-05-10T15:47:19;11.00;;;3.05;;
73239;SDS011;61452;40.054;4.110;2023-05-10T15:52:21;15.07;;;3.88;;
73239;SDS011;61452;40.054;4.110;2023-05-10T15:57:24;11.05;;;2.88;;
73239;SDS011;61452;40.054;4.110;2023-05-10T16:02:27;8.98;;;2.70;;
73239;SDS011;61452;40.054;4.110;2023-05-10T16:07:29;9.50;;;2.35;;
73239;SDS011;61452;40.054;4.110;2023-05-10T16:12:31;7.75;;;2.40;;
73239;SDS011;61452;40.054;4.110;2023-05-10T16:17:33;11.57;;;3.30;;
73239;SDS011;61452;40.054;4.110;2023-05-10T16:22:36;11.68;;;2.80;;
73239;SDS011;61452;40.054;4.110;2023-05-10T16:27:38;10.48;;;3.10;;
73239;SDS011;61452;40.054;4.110;2023-05-10T16:32:40;17.08;;;3.60;;
73239;SDS011;61452;40.054;4.110;2023-05-10T16:37:43;8.25;;;2.42;;
73239;SDS011;61452;40.054;4.110;2023-05-10T16:42:45;11.75;;;2.58;;
73239;SDS011;61452;40.054;4.110;2023-05-10T16:47:47;9.07;;;2.22;;
73239;SDS011;61452;40.054;4.110;2023-05-10T16:52:50;9.38;;;2.75;;
73239;SDS011;61452;40.054;4.110;2023-05-10T16:57:52;10.13;;;2.40;;
73239;SDS011;61452;40.054;4.110;2023-05-10T17:03:00;10.32;;;2.72;;
73239;SDS011;61452;40.054;4.110;2023-05-10T17:08:02;10.43;;;2.72;;
73239;SDS011;61452;40.054;4.110;2023-05-10T17:13:04;8.38;;;2.45;;
73239;SDS011;61452;40.054;4.110;2023-05-10T17:18:10;11.63;;;2.80;;
73239;SDS011;61452;40.054;4.110;2023-05-10T17:23:12;10.50;;;2.65;;
73239;SDS011;61452;40.054;4.110;2023-05-10T17:28:14;8.80;;;2.30;;
73239;SDS011;61452;40.054;4.110;2023-05-10T17:33:16;10.23;;;2.47;;
73239;SDS011;61452;40.054;4.110;2023-05-10T17:38:18;8.68;;;2.22;;
73239;SDS011;61452;40.054;4.110;2023-05-10T17:43:21;9.43;;;2.85;;
73239;SDS011;61452;40.054;4.110;2023-05-10T17:48:24;11.25;;;2.97;;
73239;SDS011;61452;40.054;4.110;2023-05-10T17:53:26;11.43;;;2.70;;
73239;SDS011;61452;40.054;4.110;2023-05-10T17:58:28;10.77;;;2.65;;
73239;SDS011;61452;40.054;4.110;2023-05-10T18:03:31;9.75;;;2.70;;
73239;SDS011;61452;40.054;4.110;2023-05-10T18:08:33;5.82;;;2.17;;
73239;SDS011;61452;40.054;4.110;2023-05-10T18:13:35;8.65;;;2.20;;
73239;SDS011;61452;40.054;4.110;2023-05-10T18:18:38;9.25;;;2.60;;
73239;SDS011;61452;40.054;4.110;2023-05-10T18:23:40;9.27;;;2.70;;
73239;SDS011;61452;40.054;4.110;2023-05-10T18:28:42;9.10;;;2.58;;
73239;SDS011;61452;40.054;4.110;2023-05-10T18:33:44;6.60;;;2.08;;
73239;SDS011;61452;40.054;4.110;2023-05-10T18:38:47;9.10;;;2.10;;
73239;SDS011;61452;40.054;4.110;2023-05-10T18:43:49;8.55;;;2.30;;
73239;SDS011;61452;40.054;4.110;2023-05-10T18:48:52;8.02;;;2.35;;
73239;SDS011;61452;40.054;4.110;2023-05-10T18:53:55;8.98;;;2.58;;
73239;SDS011;61452;40.054;4.110;2023-05-10T18:58:57;6.75;;;2.17;;
73239;SDS011;61452;40.054;4.110;2023-05-10T19:03:59;9.50;;;2.58;;
73239;SDS011;61452;40.054;4.110;2023-05-10T19:09:01;11.43;;;2.53;;
73239;SDS011;61452;40.054;4.110;2023-05-10T19:14:04;9.25;;;2.40;;
73239;SDS011;61452;40.054;4.110;2023-05-10T19:19:06;7.80;;;2.30;;
73239;SDS011;61452;40.054;4.110;2023-05-10T19:24:08;6.80;;;2.28;;
73239;SDS011;61452;40.054;4.110;2023-05-10T19:29:12;9.10;;;2.45;;
73239;SDS011;61452;40.054;4.110;2023-05-10T19:34:15;10.15;;;2.40;;
73239;SDS011;61452;40.054;4.110;2023-05-10T19:39:17;9.48;;;2.70;;
73239;SDS011;61452;40.054;4.110;2023-05-10T19:44:20;10.13;;;2.47;;
73239;SDS011;61452;40.054;4.110;2023-05-10T19:49:24;11.75;;;2.45;;
73239;SDS011;61452;40.054;4.110;2023-05-10T19:54:26;11.07;;;2.38;;
73239;SDS011;61452;40.054;4.110;2023-05-10T19:59:28;5.18;;;1.90;;
73239;SDS011;61452;40.054;4.110;2023-05-10T20:04:31;11.85;;;2.55;;
73239;SDS011;61452;40.054;4.110;2023-05-10T20:09:34;9.23;;;2.58;;
73239;SDS011;61452;40.054;4.110;2023-05-10T20:14:36;8.90;;;2.42;;
73239;SDS011;61452;40.054;4.110;2023-05-10T20:19:38;13.07;;;3.03;;
73239;SDS011;61452;40.054;4.110;2023-05-10T20:24:40;14.70;;;3.15;;
73239;SDS011;61452;40.054;4.110;2023-05-10T20:29:43;14.85;;;2.20;;
73239;SDS011;61452;40.054;4.110;2023-05-10T20:34:45;11.35;;;2.40;;
73239;SDS011;61452;40.054;4.110;2023-05-10T20:39:47;9.27;;;2.13;;
73239;SDS011;61452;40.054;4.110;2023-05-10T20:44:51;11.23;;;2.20;;
73239;SDS011;61452;40.054;4.110;2023-05-10T20:49:53;13.30;;;2.42;;
73239;SDS011;61452;40.054;4.110;2023-05-10T20:54:54;10.80;;;2.90;;
73239;SDS011;61452;40.054;4.110;2023-05-10T20:59:56;9.40;;;2.20;;
73239;SDS011;61452;40.054;4.110;2023-05-10T21:04:58;12.07;;;2.20;;
73239;SDS011;61452;40.054;4.110;2023-05-10T21:10:01;12.00;;;2.50;;
73239;SDS011;61452;40.054;4.110;2023-05-10T21:15:03;8.95;;;2.10;;
73239;SDS011;61452;40.054;4.110;2023-05-10T21:20:06;9.60;;;2.28;;
73239;SDS011;61452;40.054;4.110;2023-05-10T21:25:09;9.48;;;2.40;;
73239;SDS011;61452;40.054;4.110;2023-05-10T21:30:11;7.25;;;2.13;;
73239;SDS011;61452;40.054;4.110;2023-05-10T21:35:13;10.38;;;2.25;;
73239;SDS011;61452;40.054;4.110;2023-05-10T21:40:16;15.95;;;2.33;;
73239;SDS011;61452;40.054;4.110;2023-05-10T21:45:18;6.45;;;1.88;;
73239;SDS011;61452;40.054;4.110;2023-05-10T21:50:21;10.88;;;2.47;;
73239;SDS011;61452;40.054;4.110;2023-05-10T21:55:23;8.30;;;1.90;;
73239;SDS011;61452;40.054;4.110;2023-05-10T22:00:25;14.95;;;2.45;;
73239;SDS011;61452;40.054;4.110;2023-05-10T22:05:27;6.50;;;1.92;;
73239;SDS011;61452;40.054;4.110;2023-05-10T22:10:29;9.68;;;1.67;;
73239;SDS011;61452;40.054;4.110;2023-05-10T22:15:32;7.10;;;2.17;;
73239;SDS011;61452;40.054;4.110;2023-05-10T22:20:37;6.20;;;1.30;;
73239;SDS011;61452;40.054;4.110;2023-05-10T22:25:39;8.15;;;2.33;;
73239;SDS011;61452;40.054;4.110;2023-05-10T22:30:41;7.88;;;1.95;;
73239;SDS011;61452;40.054;4.110;2023-05-10T22:35:44;5.45;;;1.88;;
73239;SDS011;61452;40.054;4.110;2023-05-10T22:40:46;8.00;;;1.85;;
73239;SDS011;61452;40.054;4.110;2023-05-10T22:45:48;7.93;;;1.88;;
73239;SDS011;61452;40.054;4.110;2023-05-10T22:50:50;7.00;;;1.33;;
73239;SDS011;61452;40.054;4.110;2023-05-10T22:55:52;9.13;;;1.77;;
73239;SDS011;61452;40.054;4.110;2023-05-10T23:00:55;7.75;;;1.55;;
73239;SDS011;61452;40.054;4.110;2023-05-10T23:05:57;9.75;;;1.75;;
73239;SDS011;61452;40.054;4.110;2023-05-10T23:10:59;5.72;;;1.58;;
73239;SDS011;61452;40.054;4.110;2023-05-10T23:16:04;6.00;;;1.50;;
73239;SDS011;61452;40.054;4.110;2023-05-10T23:21:07;6.63;;;1.90;;
73239;SDS011;61452;40.054;4.110;2023-05-10T23:26:09;6.55;;;2.58;;
73239;SDS011;61452;40.054;4.110;2023-05-10T23:31:11;8.23;;;2.03;;
73239;SDS011;61452;40.054;4.110;2023-05-10T23:36:14;7.13;;;1.52;;
73239;SDS011;61452;40.054;4.110;2023-05-10T23:41:16;8.10;;;1.70;;
73239;SDS011;61452;40.054;4.110;2023-05-10T23:46:18;6.03;;;1.80;;
73239;SDS011;61452;40.054;4.110;2023-05-10T23:51:20;10.55;;;1.95;;
73239;SDS011;61452;40.054;4.110;2023-05-10T23:56:22;8.07;;;1.92;;
